Forside
METAR-TAF:

METAR-TAF

Lufthavne :

Marion County Regional Airport

Flippin, Arkansas, USA

Breddekreds: 36-18N, længdekreds: 092-28W, højde: 350 m

Aktuelle vejr

Denne rapport blev lavet for 38 minutter siden, kl. 22:56 UTC
Vind 7 kt fra nordnordvest
Temperatur 1°C
Fugtighed 44%
Tryk 1027 hPa
Sigt: 16.1 km
Overskyet i en højde af 8000 ft

METAR: KFLP 142256Z AUTO 33007KT 10SM OVC080 01/M10 A3034 RMK AO2 SLP278 T00061100 FZRANO

Tid: 17:34 (23:34 UTC)


TAF: fraværende

Vejrobservationer og prognoser fra mere end 4000 lufthavne (METAR og TAF).

De gule og røde prikker repræsenterer de meteorologiske stationer.

Flyt musen over at se navnet på stationen.

Så klik over at se vejr observationer og prognoser.

At skifte det kort: Klik på de grønne knapper med et sort kors for at zoome ind; på den grønne knap med en bindestreg for at zoome ud; eller på de grønne pile for tilstødende kort.


METAR-TAF: